createdAt,value
2022-12-11T00:02:00.425Z,12.18
2022-12-11T00:04:27.845Z,13.00
2022-12-11T00:06:55.410Z,15.13
2022-12-11T00:09:23.100Z,13.73
2022-12-11T00:11:50.197Z,14.98
2022-12-11T00:14:17.748Z,12.20
2022-12-11T00:16:45.466Z,13.85
2022-12-11T00:19:13.850Z,15.77
2022-12-11T00:21:41.370Z,13.75
2022-12-11T00:24:09.144Z,13.25
2022-12-11T00:26:36.854Z,14.68
2022-12-11T00:29:04.210Z,13.88
2022-12-11T00:31:32.054Z,14.73
2022-12-11T00:34:01.367Z,12.07
2022-12-11T00:36:29.029Z,13.38
2022-12-11T00:38:56.220Z,13.95
2022-12-11T00:41:23.995Z,14.02
2022-12-11T00:43:51.250Z,15.03
2022-12-11T00:46:19.086Z,12.80
2022-12-11T00:48:46.624Z,14.90
2022-12-11T00:51:14.113Z,11.13
2022-12-11T00:53:41.665Z,12.07
2022-12-11T00:56:13.930Z,13.33
2022-12-11T00:58:41.415Z,12.93
2022-12-11T01:01:11.050Z,14.63
2022-12-11T01:03:38.670Z,14.10
2022-12-11T01:06:06.872Z,12.75
2022-12-11T01:08:38.522Z,13.67
2022-12-11T01:11:08.874Z,12.73
2022-12-11T01:13:36.171Z,13.38
2022-12-11T01:16:11.337Z,13.57
2022-12-11T01:18:38.677Z,11.90
2022-12-11T01:21:12.052Z,9.90
2022-12-11T01:23:40.280Z,13.35
2022-12-11T01:26:13.337Z,14.02
2022-12-11T01:28:41.617Z,12.70
2022-12-11T01:31:13.405Z,11.70
2022-12-11T01:33:41.284Z,10.37
2022-12-11T01:36:18.798Z,12.75
2022-12-11T01:38:47.244Z,12.35
2022-12-11T01:41:15.512Z,12.77
2022-12-11T01:44:08.802Z,10.88
2022-12-11T01:46:37.293Z,8.50
2022-12-11T01:49:08.294Z,12.80
2022-12-11T01:51:42.623Z,10.98
2022-12-11T01:54:12.487Z,10.98
2022-12-11T01:56:40.491Z,9.23
2022-12-11T01:59:10.073Z,13.13
2022-12-11T02:01:41.513Z,12.50
2022-12-11T02:04:10.075Z,9.55
2022-12-11T02:06:42.308Z,9.20
2022-12-11T02:09:13.310Z,12.45
2022-12-11T02:12:01.708Z,8.23
2022-12-11T02:14:50.426Z,9.60
2022-12-11T02:17:20.082Z,10.55
2022-12-11T02:20:02.084Z,9.13
2022-12-11T02:22:48.317Z,10.68
2022-12-11T02:25:27.826Z,10.33
2022-12-11T02:28:18.090Z,8.50
2022-12-11T02:30:52.510Z,8.60
2022-12-11T02:33:24.328Z,7.65
2022-12-11T02:35:51.834Z,8.05
2022-12-11T02:38:27.357Z,7.00
2022-12-11T02:40:56.223Z,6.72
2022-12-11T02:43:24.331Z,8.10
2022-12-11T02:45:52.307Z,6.13
2022-12-11T02:48:21.275Z,7.13
2022-12-11T02:50:52.100Z,6.27
2022-12-11T02:53:22.104Z,7.32
2022-12-11T02:55:53.102Z,6.35
2022-12-11T02:58:24.436Z,5.85
2022-12-11T03:00:51.871Z,4.88
2022-12-11T03:03:19.533Z,6.50
2022-12-11T03:05:47.213Z,5.05
2022-12-11T03:08:18.955Z,6.18
2022-12-11T03:10:46.543Z,5.28
2022-12-11T03:13:14.540Z,4.20
2022-12-11T03:15:58.324Z,4.10
2022-12-11T03:18:39.357Z,3.75
2022-12-11T03:21:20.249Z,4.22
2022-12-11T03:24:04.547Z,3.85
2022-12-11T03:26:36.119Z,3.42
2022-12-11T03:29:09.120Z,2.63
2022-12-11T03:31:36.552Z,3.80
2022-12-11T03:34:11.125Z,1.90
2022-12-11T03:36:39.558Z,2.10
2022-12-11T03:39:10.360Z,2.30
2022-12-11T03:41:39.128Z,2.37
2022-12-11T03:44:08.037Z,3.13
2022-12-11T03:46:38.469Z,1.27
2022-12-11T03:49:16.133Z,3.40
2022-12-11T03:51:45.380Z,2.15
2022-12-11T03:54:13.381Z,2.07
2022-12-11T03:56:41.273Z,3.25
2022-12-11T03:59:09.135Z,3.42
2022-12-11T04:01:36.658Z,2.45
2022-12-11T04:04:04.213Z,2.33
2022-12-11T04:06:32.041Z,3.17
2022-12-11T04:08:59.392Z,4.25
2022-12-11T04:11:35.793Z,2.97
2022-12-11T04:14:24.144Z,3.55
2022-12-11T04:16:51.686Z,1.88
2022-12-11T04:19:38.399Z,2.93
2022-12-11T04:22:34.579Z,1.92
2022-12-11T04:25:03.140Z,3.30
2022-12-11T04:27:49.063Z,2.50
2022-12-11T04:30:22.160Z,3.08
2022-12-11T04:32:50.561Z,2.97
2022-12-11T04:35:18.700Z,2.90
2022-12-11T04:37:46.600Z,3.42
2022-12-11T04:40:16.414Z,3.75
2022-12-11T04:42:43.967Z,4.95
2022-12-11T04:45:12.497Z,4.00
2022-12-11T04:47:41.081Z,4.35
2022-12-11T04:50:13.097Z,7.25
2022-12-11T04:52:40.535Z,4.50
2022-12-11T04:55:09.158Z,6.38
2022-12-11T04:57:37.577Z,5.00
2022-12-11T05:00:10.167Z,4.07
2022-12-11T05:02:40.224Z,6.68
2022-12-11T05:05:10.396Z,4.82
2022-12-11T05:07:38.340Z,4.30
2022-12-11T05:10:06.924Z,5.40
2022-12-11T05:12:34.174Z,6.82
2022-12-11T05:15:01.928Z,6.15
2022-12-11T05:17:29.816Z,5.65
2022-12-11T05:19:57.179Z,7.00
2022-12-11T05:22:24.821Z,5.13
2022-12-11T05:24:52.180Z,5.40
2022-12-11T05:27:19.935Z,5.20
2022-12-11T05:29:48.082Z,7.47
2022-12-11T05:32:15.823Z,10.10
2022-12-11T05:34:43.186Z,6.10
2022-12-11T05:37:10.827Z,7.68
2022-12-11T05:39:38.673Z,7.22
2022-12-11T05:42:06.456Z,7.43
2022-12-11T05:44:34.190Z,6.65
2022-12-11T05:47:02.122Z,6.43
2022-12-11T05:49:31.147Z,7.78
2022-12-11T05:51:59.194Z,5.55
2022-12-11T05:54:26.948Z,6.63
2022-12-11T05:56:55.196Z,6.30
2022-12-11T05:59:22.467Z,5.90
2022-12-11T06:01:49.829Z,6.50
2022-12-11T06:04:17.660Z,6.45
2022-12-11T06:06:45.200Z,6.43
2022-12-11T06:09:16.474Z,8.68
2022-12-11T06:11:43.959Z,5.30
2022-12-11T06:14:12.352Z,6.40
2022-12-11T06:16:40.552Z,8.80
2022-12-11T06:19:08.146Z,6.43
2022-12-11T06:21:36.208Z,6.15
2022-12-11T06:24:04.673Z,6.60
2022-12-11T06:26:32.855Z,7.35
2022-12-11T06:31:28.885Z,6.85
2022-12-11T06:33:56.859Z,5.47
2022-12-11T06:36:25.365Z,7.55
2022-12-11T06:38:53.656Z,6.57
2022-12-11T06:41:21.685Z,6.75
2022-12-11T06:43:49.978Z,11.27
2022-12-11T06:46:19.729Z,6.95
2022-12-11T06:48:48.376Z,8.77
2022-12-11T06:51:18.504Z,8.40
2022-12-11T06:53:53.376Z,10.18
2022-12-11T06:56:22.170Z,7.28
2022-12-11T06:58:49.987Z,7.13
2022-12-11T07:01:20.431Z,6.17
2022-12-11T07:03:48.624Z,8.10
2022-12-11T07:06:16.233Z,8.57
2022-12-11T07:08:44.142Z,10.40
2022-12-11T07:11:14.995Z,6.22
2022-12-11T07:13:43.168Z,6.17
2022-12-11T07:16:13.313Z,8.27
2022-12-11T07:18:42.958Z,9.25
2022-12-11T07:21:10.726Z,7.68
2022-12-11T07:23:38.889Z,8.48
2022-12-11T07:26:08.715Z,8.10
2022-12-11T07:28:36.717Z,7.70
2022-12-11T07:31:13.246Z,7.05
2022-12-11T07:33:41.720Z,6.88
2022-12-11T07:36:11.127Z,9.35
2022-12-11T07:38:38.897Z,5.53
2022-12-11T07:41:08.899Z,7.40
2022-12-11T07:43:37.539Z,7.22
2022-12-11T07:46:07.323Z,8.73
2022-12-11T07:48:39.543Z,7.05
2022-12-11T07:51:17.410Z,5.07
2022-12-11T07:53:47.762Z,6.70
2022-12-11T07:56:16.254Z,8.10
2022-12-11T07:58:44.551Z,6.05
2022-12-11T08:01:23.802Z,7.57
2022-12-11T08:03:51.414Z,7.87
2022-12-11T08:06:19.913Z,7.00
2022-12-11T08:08:47.721Z,6.75
2022-12-11T08:11:16.262Z,5.30
2022-12-11T08:13:44.160Z,6.50
2022-12-11T08:16:15.304Z,5.60
2022-12-11T08:18:43.761Z,5.60
2022-12-11T08:21:15.367Z,4.95
2022-12-11T08:23:42.922Z,6.90
2022-12-11T08:26:14.424Z,4.03
2022-12-11T08:28:42.077Z,5.10
2022-12-11T08:31:11.296Z,5.95
2022-12-11T08:33:40.026Z,5.28
2022-12-11T08:36:09.928Z,4.80
2022-12-11T08:38:37.766Z,4.55
2022-12-11T08:41:14.271Z,5.50
2022-12-11T08:43:42.029Z,3.58
2022-12-11T08:46:10.965Z,3.75
2022-12-11T08:48:39.937Z,4.88
2022-12-11T08:51:09.280Z,4.68
2022-12-11T08:53:37.441Z,3.60
2022-12-11T08:56:10.247Z,5.05
2022-12-11T08:58:38.727Z,5.28
2022-12-11T09:01:10.372Z,3.88
2022-12-11T09:03:38.782Z,2.90
2022-12-11T09:06:07.948Z,4.27
2022-12-11T09:08:35.949Z,4.90
2022-12-11T09:11:12.199Z,3.53
2022-12-11T09:13:40.446Z,2.80
2022-12-11T09:16:11.638Z,4.88
2022-12-11T09:18:39.954Z,4.60
2022-12-11T09:21:14.070Z,3.65
2022-12-11T09:23:42.432Z,3.75
2022-12-11T09:26:13.287Z,4.88
2022-12-11T09:28:46.275Z,2.17
2022-12-11T09:31:17.061Z,4.30
2022-12-11T09:33:45.078Z,2.97
2022-12-11T09:36:12.738Z,3.85
2022-12-11T09:38:40.456Z,3.88
2022-12-11T09:41:37.455Z,2.53
2022-12-11T09:44:33.394Z,3.23
2022-12-11T09:47:01.460Z,3.30
2022-12-11T09:49:41.927Z,4.68
2022-12-11T09:52:18.817Z,4.35
2022-12-11T09:54:59.286Z,4.68
2022-12-11T09:57:35.977Z,4.90
2022-12-11T10:00:20.718Z,4.97
2022-12-11T10:03:12.729Z,3.40
2022-12-11T10:05:52.641Z,6.45
2022-12-11T10:08:54.332Z,3.92
2022-12-11T10:11:40.493Z,5.27
2022-12-11T10:14:22.194Z,4.47
2022-12-11T10:16:52.947Z,6.63
2022-12-11T10:19:27.990Z,3.63
2022-12-11T10:21:56.304Z,5.57
2022-12-11T10:25:09.375Z,4.57
2022-12-11T10:27:34.842Z,5.05
2022-12-11T10:30:16.711Z,3.72
2022-12-11T10:33:06.999Z,5.18
2022-12-11T10:35:46.113Z,4.10
2022-12-11T10:38:22.115Z,3.67
2022-12-11T10:40:56.801Z,3.53
2022-12-11T10:43:35.004Z,4.38
2022-12-11T10:46:02.884Z,4.70
2022-12-11T10:48:31.010Z,4.13
2022-12-11T10:51:05.122Z,4.53
2022-12-11T10:53:33.010Z,3.88
2022-12-11T10:56:01.020Z,2.88
2022-12-11T10:58:34.566Z,4.38
2022-12-11T11:01:09.262Z,5.20
2022-12-11T11:03:44.320Z,3.43
2022-12-11T11:06:20.321Z,5.55
2022-12-11T11:08:50.498Z,5.95
2022-12-11T11:11:34.576Z,3.88
2022-12-11T11:14:18.023Z,3.80
2022-12-11T11:16:48.028Z,3.87
2022-12-11T11:19:23.139Z,4.68
2022-12-11T11:21:53.027Z,5.28
2022-12-11T11:24:41.275Z,3.45
2022-12-11T11:27:30.503Z,4.35
2022-12-11T11:30:01.695Z,4.63
2022-12-11T11:32:39.327Z,5.60
2022-12-11T11:35:13.337Z,3.30
2022-12-11T11:37:45.508Z,4.78
2022-12-11T11:40:18.892Z,3.42
2022-12-11T11:43:08.152Z,3.83
2022-12-11T11:45:44.897Z,3.83
2022-12-11T11:48:21.711Z,3.55
2022-12-11T11:50:51.157Z,6.38
2022-12-11T11:53:31.519Z,4.90
2022-12-11T11:56:06.338Z,4.40
2022-12-11T11:58:46.196Z,4.40
2022-12-11T12:01:17.718Z,4.72
2022-12-11T12:03:46.052Z,5.32
2022-12-11T12:06:50.778Z,3.53
2022-12-11T12:09:35.373Z,4.77
2022-12-11T12:12:05.724Z,5.20
2022-12-11T12:17:36.427Z,4.68
2022-12-11T12:20:20.347Z,5.05
2022-12-11T12:23:19.575Z,7.10
2022-12-11T12:25:53.348Z,6.68
2022-12-11T12:28:35.928Z,4.97
2022-12-11T12:31:36.810Z,4.18
2022-12-11T12:34:28.391Z,5.53
2022-12-11T12:37:01.938Z,4.93
2022-12-11T12:40:02.069Z,4.35
2022-12-11T12:42:52.705Z,4.60
2022-12-11T12:45:35.511Z,7.63
2022-12-11T12:48:03.355Z,3.35
2022-12-11T12:50:39.357Z,5.37
2022-12-11T12:53:07.946Z,6.68
2022-12-11T12:55:36.357Z,4.65
2022-12-11T12:58:06.741Z,4.60
2022-12-11T13:00:38.142Z,5.88
2022-12-11T13:03:21.331Z,5.73
2022-12-11T13:06:08.549Z,6.93
2022-12-11T13:08:44.862Z,5.32
2022-12-11T13:11:13.549Z,5.32
2022-12-11T13:13:50.194Z,5.07
2022-12-11T13:16:20.813Z,6.17
2022-12-11T13:18:48.654Z,8.52
2022-12-11T13:21:40.561Z,6.70
2022-12-11T13:24:20.325Z,7.60
2022-12-11T13:26:49.199Z,4.85
2022-12-11T13:29:37.561Z,5.07
2022-12-11T13:32:08.287Z,5.32
2022-12-11T13:34:40.107Z,4.53
2022-12-11T13:37:17.373Z,5.10
2022-12-11T13:39:47.110Z,5.57
2022-12-11T13:42:35.790Z,5.93
2022-12-11T13:45:04.208Z,6.03
2022-12-11T13:47:32.376Z,9.00
2022-12-11T13:50:27.211Z,6.53
2022-12-11T13:53:00.212Z,6.93
2022-12-11T13:55:30.380Z,6.40
2022-12-11T13:57:58.381Z,8.38
2022-12-11T14:00:28.383Z,12.43
2022-12-11T14:02:57.383Z,11.10
2022-12-11T14:05:24.917Z,10.18
2022-12-11T14:07:54.428Z,10.67
2022-12-11T14:10:24.741Z,10.32
2022-12-11T14:12:53.388Z,7.15
2022-12-11T14:15:21.132Z,8.55
2022-12-11T14:17:51.877Z,7.30
2022-12-11T14:20:24.976Z,9.20
2022-12-11T14:22:52.340Z,8.98
2022-12-11T14:25:28.544Z,8.75
2022-12-11T14:27:57.140Z,6.72
2022-12-11T14:30:27.531Z,8.07
2022-12-11T14:32:58.392Z,10.60
2022-12-11T14:35:35.551Z,10.32
2022-12-11T14:38:09.394Z,7.35
2022-12-11T14:40:40.254Z,6.82
2022-12-11T14:43:23.489Z,8.50
2022-12-11T14:45:56.506Z,7.60
2022-12-11T14:48:27.721Z,6.00
2022-12-11T14:50:58.326Z,8.77
2022-12-11T14:53:40.740Z,7.80
2022-12-11T14:56:14.330Z,8.43
2022-12-11T14:58:45.599Z,7.27
2022-12-11T15:01:35.068Z,9.60
2022-12-11T15:04:14.404Z,8.40
2022-12-11T15:06:50.164Z,7.68
2022-12-11T15:09:43.406Z,7.47
2022-12-11T15:12:13.500Z,7.23
2022-12-11T15:14:47.687Z,8.10
2022-12-11T15:17:15.606Z,9.00
2022-12-11T15:19:47.608Z,10.20
2022-12-11T15:22:16.174Z,9.25
2022-12-11T15:24:44.507Z,8.80
2022-12-11T15:27:34.415Z,8.15
2022-12-11T15:30:15.056Z,9.65
2022-12-11T15:32:42.613Z,9.00
2022-12-11T15:35:27.359Z,9.80
2022-12-11T15:37:56.512Z,8.40
2022-12-11T15:40:24.573Z,8.25
2022-12-11T15:42:52.874Z,9.18
2022-12-11T15:45:22.422Z,13.50
2022-12-11T15:47:50.365Z,9.65
2022-12-11T15:50:25.624Z,8.73
2022-12-11T15:52:54.369Z,8.30
2022-12-11T15:55:23.074Z,9.45
2022-12-11T15:58:02.491Z,9.75
2022-12-11T16:00:29.715Z,8.52
2022-12-11T16:02:57.660Z,8.90
2022-12-11T16:05:26.198Z,10.20
2022-12-11T16:07:54.946Z,9.05
2022-12-11T16:10:22.631Z,10.85
2022-12-11T16:12:50.313Z,9.82
2022-12-11T16:15:23.233Z,8.43
2022-12-11T16:17:59.502Z,9.10
2022-12-11T16:20:27.211Z,8.90
2022-12-11T16:22:54.319Z,8.68
2022-12-11T16:25:21.504Z,13.30
2022-12-11T16:27:48.629Z,12.73
2022-12-11T16:30:16.394Z,11.75
2022-12-11T16:32:44.394Z,11.68
2022-12-11T16:35:11.799Z,7.47
2022-12-11T16:37:39.508Z,11.00
2022-12-11T16:40:07.557Z,11.70
2022-12-11T16:42:35.221Z,8.65
2022-12-11T16:45:08.700Z,10.65
2022-12-11T16:47:36.109Z,9.45
2022-12-11T16:50:03.646Z,8.80
2022-12-11T16:52:32.373Z,9.67
2022-12-11T16:54:59.375Z,10.32
2022-12-11T16:57:26.519Z,10.05
2022-12-11T16:59:54.077Z,8.90
2022-12-11T17:02:21.395Z,9.38
2022-12-11T17:04:53.627Z,10.23
2022-12-11T17:07:21.418Z,11.38
2022-12-11T17:09:48.655Z,8.23
2022-12-11T17:12:16.128Z,9.18
2022-12-11T17:14:43.528Z,10.02
2022-12-11T17:17:10.857Z,8.07
2022-12-11T17:19:37.940Z,9.88
2022-12-11T17:22:05.401Z,8.88
2022-12-11T17:24:32.663Z,8.68
2022-12-11T17:27:00.453Z,7.18
2022-12-11T17:29:27.533Z,8.13
2022-12-11T17:31:55.141Z,8.60
2022-12-11T17:34:22.458Z,8.85
2022-12-11T17:36:49.778Z,8.48
2022-12-11T17:39:17.402Z,8.52
2022-12-11T17:41:44.785Z,8.73
2022-12-11T17:44:12.670Z,11.00
2022-12-11T17:46:39.910Z,10.32
2022-12-11T17:49:07.153Z,8.30
2022-12-11T17:51:34.447Z,8.63
2022-12-11T17:54:01.676Z,9.97
2022-12-11T17:56:29.325Z,6.80
2022-12-11T17:58:56.966Z,8.15
2022-12-11T18:01:24.512Z,10.73
2022-12-11T18:03:52.198Z,6.28
2022-12-11T18:06:19.420Z,9.87
2022-12-11T18:08:46.965Z,7.68
2022-12-11T18:11:16.976Z,7.72
2022-12-11T18:13:45.385Z,7.55
2022-12-11T18:16:15.240Z,10.93
2022-12-11T18:18:42.426Z,8.77
2022-12-11T18:21:13.469Z,9.45
2022-12-11T18:23:40.690Z,9.48
2022-12-11T18:26:08.180Z,9.15
2022-12-11T18:28:35.563Z,7.95
2022-12-11T18:31:03.748Z,7.90
2022-12-11T18:33:32.372Z,8.63
2022-12-11T18:35:59.567Z,7.10
2022-12-11T18:38:27.190Z,10.82
2022-12-11T18:40:54.441Z,8.88
2022-12-11T18:43:21.641Z,7.37
2022-12-11T18:45:49.193Z,8.15
2022-12-11T18:48:16.572Z,10.63
2022-12-11T18:50:46.002Z,8.10
2022-12-11T18:53:13.577Z,8.20
2022-12-11T18:55:43.265Z,8.98
2022-12-11T18:58:11.626Z,9.10
2022-12-11T19:00:40.877Z,9.52
2022-12-11T19:03:09.205Z,10.07
2022-12-11T19:05:36.581Z,9.93
2022-12-11T19:08:04.481Z,9.40
2022-12-11T19:10:31.809Z,11.23
2022-12-11T19:12:59.459Z,9.43
2022-12-11T19:15:27.844Z,10.43
2022-12-11T19:17:55.216Z,15.27
2022-12-11T19:20:47.980Z,9.65
2022-12-11T19:23:10.466Z,11.65
2022-12-11T19:25:47.849Z,10.48
2022-12-11T19:28:15.642Z,9.52
2022-12-11T19:30:47.434Z,14.18
2022-12-11T19:33:15.517Z,11.30
2022-12-11T19:35:43.473Z,10.35
2022-12-11T19:38:11.328Z,13.05
2022-12-11T19:40:42.650Z,8.05
2022-12-11T19:43:10.235Z,9.68
2022-12-11T19:45:37.526Z,9.67
2022-12-11T19:48:05.043Z,11.30
2022-12-11T19:50:32.604Z,9.25
2022-12-11T19:53:00.336Z,13.45
2022-12-11T19:55:27.532Z,12.95
2022-12-11T19:57:55.731Z,11.73
2022-12-11T20:00:23.490Z,13.60
2022-12-11T20:02:51.449Z,14.10
2022-12-11T20:05:19.052Z,13.73
2022-12-11T20:07:46.675Z,17.00
2022-12-11T20:10:14.349Z,17.00
2022-12-11T20:12:41.736Z,16.33
2022-12-11T20:15:09.691Z,14.20
2022-12-11T20:17:38.277Z,14.05
2022-12-11T20:20:06.460Z,15.68
2022-12-11T20:22:33.618Z,13.45
2022-12-11T20:25:00.889Z,16.10
2022-12-11T20:27:28.555Z,14.23
2022-12-11T20:29:56.070Z,15.63
2022-12-11T20:32:23.558Z,15.27
2022-12-11T20:34:51.075Z,13.07
2022-12-11T20:37:18.469Z,13.68
2022-12-11T20:39:45.686Z,13.75
2022-12-11T20:42:13.473Z,16.27
2022-12-11T20:44:45.670Z,16.33
2022-12-11T20:47:16.894Z,15.50
2022-12-11T20:49:44.477Z,15.73
2022-12-11T20:52:11.690Z,13.77
2022-12-11T20:54:39.287Z,12.35
2022-12-11T20:57:06.634Z,14.65
2022-12-11T20:59:34.091Z,18.80
2022-12-11T21:02:01.745Z,15.05
2022-12-11T21:04:29.486Z,13.10
2022-12-11T21:06:56.916Z,15.30
2022-12-11T21:09:26.700Z,15.32
2022-12-11T21:11:54.296Z,15.07
2022-12-11T21:14:21.702Z,15.65
2022-12-11T21:16:49.437Z,19.40
2022-12-11T21:19:17.271Z,16.80
2022-12-11T21:21:45.500Z,20.30
2022-12-11T21:24:27.538Z,15.38
2022-12-11T21:26:57.544Z,16.70
2022-12-11T21:29:26.649Z,14.52
2022-12-11T21:31:54.376Z,15.30
2022-12-11T21:34:25.213Z,17.50
2022-12-11T21:36:56.881Z,15.47
2022-12-11T21:39:25.528Z,19.42
2022-12-11T21:41:52.684Z,15.50
2022-12-11T21:47:07.406Z,16.27
2022-12-11T21:49:35.778Z,16.13
2022-12-11T21:52:03.587Z,14.55
2022-12-11T21:54:31.128Z,18.88
2022-12-11T21:56:58.329Z,12.10
2022-12-11T21:59:25.625Z,17.80
2022-12-11T22:01:52.924Z,17.38
2022-12-11T22:04:20.730Z,14.75
2022-12-11T22:06:48.442Z,17.67
2022-12-11T22:09:16.640Z,14.57
2022-12-11T22:11:45.555Z,16.02
2022-12-11T22:14:14.628Z,15.50
2022-12-11T22:16:42.795Z,15.75
2022-12-11T22:19:10.660Z,16.25
2022-12-11T22:21:38.530Z,14.52
2022-12-11T22:24:06.432Z,16.85
2022-12-11T22:26:33.744Z,16.13
2022-12-11T22:29:01.420Z,18.00
2022-12-11T22:31:28.748Z,13.82
2022-12-11T22:33:56.538Z,13.70
2022-12-11T22:36:24.748Z,13.05
2022-12-11T22:38:52.540Z,13.25
2022-12-11T22:41:28.363Z,11.65
2022-12-11T22:43:55.842Z,13.70
2022-12-11T22:46:26.544Z,15.43
2022-12-11T22:48:54.364Z,11.18
2022-12-11T22:51:21.985Z,14.70
2022-12-11T22:53:49.656Z,12.60
2022-12-11T22:56:17.656Z,13.63
2022-12-11T22:58:45.174Z,13.30
2022-12-11T23:01:15.373Z,13.00
2022-12-11T23:03:42.833Z,13.80
2022-12-11T23:06:12.769Z,14.65
2022-12-11T23:08:40.798Z,16.10
2022-12-11T23:11:24.457Z,14.20
2022-12-11T23:13:52.479Z,11.25
2022-12-11T23:16:20.412Z,13.55
2022-12-11T23:18:48.009Z,13.65
2022-12-11T23:21:15.672Z,13.50
2022-12-11T23:23:43.615Z,11.38
2022-12-11T23:26:12.784Z,12.32
2022-12-11T23:28:41.196Z,10.10
2022-12-11T23:31:08.974Z,10.68
2022-12-11T23:33:36.680Z,11.25
2022-12-11T23:36:04.782Z,9.77
2022-12-11T23:38:32.684Z,11.15
2022-12-11T23:41:01.496Z,8.93
2022-12-11T23:43:28.792Z,8.18
2022-12-11T23:45:56.803Z,10.18
2022-12-11T23:48:24.793Z,8.00
2022-12-11T23:50:52.692Z,7.05
2022-12-11T23:53:20.584Z,7.78
2022-12-11T23:55:48.010Z,7.65
2022-12-11T23:58:15.698Z,10.45
